createdAt,value
2019-02-22T00:02:38.498Z,17.37
2019-02-22T00:05:06.765Z,10.83
2019-02-22T00:07:34.518Z,10.20
2019-02-22T00:10:02.242Z,12.87
2019-02-22T00:12:29.933Z,11.33
2019-02-22T00:14:57.679Z,11.30
2019-02-22T00:17:25.386Z,8.50
2019-02-22T00:19:53.055Z,8.27
2019-02-22T00:22:20.827Z,11.60
2019-02-22T00:24:48.329Z,7.87
2019-02-22T00:27:15.861Z,6.10
2019-02-22T00:29:43.486Z,9.40
2019-02-22T00:32:11.015Z,8.17
2019-02-22T00:34:38.532Z,13.43
2019-02-22T00:37:06.019Z,9.00
2019-02-22T00:39:33.529Z,10.63
2019-02-22T00:42:01.037Z,11.83
2019-02-22T00:44:28.585Z,12.33
2019-02-22T00:46:56.071Z,10.80
2019-02-22T00:49:23.623Z,11.43
2019-02-22T00:51:51.133Z,10.03
2019-02-22T00:54:18.611Z,8.97
2019-02-22T00:56:46.103Z,11.60
2019-02-22T00:59:13.597Z,18.07
2019-02-22T01:01:41.081Z,13.27
2019-02-22T01:04:08.631Z,11.23
2019-02-22T01:06:36.133Z,12.10
2019-02-22T01:09:04.514Z,12.87
2019-02-22T01:11:32.063Z,11.77
2019-02-22T01:13:59.541Z,8.67
2019-02-22T01:16:27.024Z,7.27
2019-02-22T01:18:54.557Z,9.33
2019-02-22T01:21:22.041Z,3.97
2019-02-22T01:23:49.521Z,6.63
2019-02-22T01:26:17.065Z,8.17
2019-02-22T01:28:44.546Z,9.87
2019-02-22T01:31:12.025Z,6.77
2019-02-22T01:33:39.541Z,6.33
2019-02-22T01:36:07.064Z,9.43
2019-02-22T01:38:34.557Z,7.40
2019-02-22T01:41:02.061Z,10.77
2019-02-22T01:43:29.580Z,13.60
2019-02-22T01:45:57.085Z,8.40
2019-02-22T01:48:24.621Z,13.33
2019-02-22T01:50:52.218Z,10.20
2019-02-22T01:53:19.787Z,9.47
2019-02-22T01:55:47.266Z,12.13
2019-02-22T01:58:14.797Z,8.53
2019-02-22T02:00:42.319Z,8.17
2019-02-22T02:03:09.804Z,4.80
2019-02-22T02:05:37.420Z,6.43
2019-02-22T02:08:05.279Z,6.87
2019-02-22T02:10:32.789Z,5.83
2019-02-22T02:13:00.340Z,5.20
2019-02-22T02:15:27.800Z,6.13
2019-02-22T02:17:55.291Z,4.80
2019-02-22T02:20:22.815Z,6.27
2019-02-22T02:22:50.404Z,9.97
2019-02-22T02:25:17.882Z,5.57
2019-02-22T02:27:45.342Z,5.37
2019-02-22T02:30:12.885Z,6.50
2019-02-22T02:32:40.353Z,6.03
2019-02-22T02:35:07.833Z,7.40
2019-02-22T02:37:35.354Z,8.17
2019-02-22T02:40:03.184Z,5.90
2019-02-22T02:42:30.717Z,10.07
2019-02-22T02:44:58.193Z,5.00
2019-02-22T02:47:25.680Z,9.27
2019-02-22T02:49:53.193Z,4.63
2019-02-22T02:52:20.695Z,6.20
2019-02-22T02:54:48.180Z,6.07
2019-02-22T02:57:15.706Z,6.87
2019-02-22T02:59:43.178Z,5.33
2019-02-22T03:02:18.876Z,8.90
2019-02-22T03:04:46.334Z,13.73
2019-02-22T03:07:33.360Z,7.83
2019-02-22T03:10:00.853Z,9.37
2019-02-22T03:12:28.325Z,9.47
2019-02-22T03:14:56.000Z,6.57
2019-02-22T03:17:23.508Z,7.40
2019-02-22T03:19:50.982Z,7.20
2019-02-22T03:22:18.498Z,7.43
2019-02-22T03:24:45.981Z,5.27
2019-02-22T03:27:13.473Z,8.57
2019-02-22T03:29:40.965Z,8.70
2019-02-22T03:32:08.494Z,9.90
2019-02-22T03:34:35.969Z,14.67
2019-02-22T03:37:03.565Z,8.03
2019-02-22T03:39:31.078Z,6.37
2019-02-22T03:41:58.552Z,12.33
2019-02-22T03:44:26.033Z,10.10
2019-02-22T03:46:53.575Z,10.53
2019-02-22T03:49:21.093Z,5.40
2019-02-22T03:51:48.574Z,6.63
2019-02-22T03:54:16.087Z,9.23
2019-02-22T03:56:43.552Z,11.17
2019-02-22T03:59:11.021Z,8.13
2019-02-22T04:01:38.532Z,7.17
2019-02-22T04:04:06.023Z,6.90
2019-02-22T04:06:33.497Z,6.60
2019-02-22T04:09:00.978Z,11.13
2019-02-22T04:11:28.477Z,8.43
2019-02-22T04:13:56.007Z,10.90
2019-02-22T04:16:23.498Z,8.30
2019-02-22T04:18:50.992Z,7.03
2019-02-22T04:21:18.502Z,8.03
2019-02-22T04:23:46.641Z,6.13
2019-02-22T04:26:14.114Z,6.97
2019-02-22T04:28:41.590Z,9.70
2019-02-22T04:31:09.164Z,8.07
2019-02-22T04:33:36.634Z,6.87
2019-02-22T04:36:04.112Z,6.47
2019-02-22T04:38:31.646Z,13.47
2019-02-22T04:40:59.118Z,5.13
2019-02-22T04:43:26.616Z,5.10
2019-02-22T04:45:54.172Z,8.40
2019-02-22T04:48:21.672Z,7.33
2019-02-22T04:50:49.237Z,5.20
2019-02-22T04:53:16.756Z,6.47
2019-02-22T04:55:44.233Z,3.07
2019-02-22T04:58:11.726Z,7.13
2019-02-22T05:00:39.248Z,12.63
2019-02-22T05:03:06.735Z,8.43
2019-02-22T05:05:34.269Z,6.00
2019-02-22T05:08:01.799Z,10.13
2019-02-22T05:10:29.279Z,8.43
2019-02-22T05:12:56.754Z,8.17
2019-02-22T05:15:24.273Z,7.40
2019-02-22T05:17:51.753Z,8.27
2019-02-22T05:20:19.324Z,6.43
2019-02-22T05:22:46.852Z,8.03
2019-02-22T05:25:14.343Z,9.93
2019-02-22T05:27:41.865Z,7.03
2019-02-22T05:30:09.347Z,13.57
2019-02-22T05:32:36.854Z,7.97
2019-02-22T05:35:04.388Z,12.73
2019-02-22T05:37:31.861Z,8.43
2019-02-22T05:39:59.372Z,9.77
2019-02-22T05:42:28.654Z,15.23
2019-02-22T05:44:56.198Z,11.60
2019-02-22T05:47:23.717Z,8.63
2019-02-22T05:49:51.257Z,16.83
2019-02-22T05:52:18.765Z,11.90
2019-02-22T05:54:46.262Z,6.30
2019-02-22T05:57:14.377Z,7.87
2019-02-22T05:59:41.985Z,8.03
2019-02-22T06:02:09.548Z,11.13
2019-02-22T06:04:37.048Z,8.90
2019-02-22T06:07:04.524Z,7.97
2019-02-22T06:09:32.172Z,11.83
2019-02-22T06:11:59.651Z,13.97
2019-02-22T06:14:27.156Z,16.47
2019-02-22T06:16:54.671Z,17.17
2019-02-22T06:19:22.253Z,17.10
2019-02-22T06:21:49.821Z,21.53
2019-02-22T06:24:17.356Z,22.50
2019-02-22T06:26:44.943Z,12.53
2019-02-22T06:29:12.470Z,20.77
2019-02-22T06:31:39.976Z,15.87
2019-02-22T06:34:07.496Z,9.47
2019-02-22T06:36:35.031Z,17.70
2019-02-22T06:39:04.457Z,15.77
2019-02-22T06:41:32.010Z,15.27
2019-02-22T06:43:59.523Z,15.23
2019-02-22T06:46:27.035Z,12.77
2019-02-22T06:48:54.584Z,18.27
2019-02-22T06:51:22.163Z,8.33
2019-02-22T06:53:49.648Z,9.93
2019-02-22T06:56:17.178Z,6.47
2019-02-22T06:58:44.641Z,11.50
2019-02-22T07:01:12.282Z,16.03
2019-02-22T07:03:39.818Z,11.77
2019-02-22T07:06:07.342Z,5.93
2019-02-22T07:08:34.843Z,11.17
2019-02-22T07:11:28.302Z,11.57
2019-02-22T07:13:55.788Z,7.17
2019-02-22T07:16:23.319Z,4.97
2019-02-22T07:18:50.880Z,6.80
2019-02-22T07:21:18.450Z,7.27
2019-02-22T07:23:45.932Z,6.53
2019-02-22T07:26:13.530Z,6.83
2019-02-22T07:28:40.998Z,10.10
2019-02-22T07:31:08.477Z,4.10
2019-02-22T07:33:36.209Z,4.50
2019-02-22T07:36:03.813Z,7.00
2019-02-22T07:38:31.302Z,8.57
2019-02-22T07:40:58.839Z,8.07
2019-02-22T07:43:26.346Z,6.07
2019-02-22T07:45:53.820Z,4.23
2019-02-22T07:48:21.310Z,7.07
2019-02-22T07:50:56.902Z,5.53
2019-02-22T07:53:18.100Z,7.90
2019-02-22T07:55:45.583Z,6.30
2019-02-22T07:58:13.089Z,8.27
2019-02-22T08:00:40.598Z,10.83
2019-02-22T08:03:08.081Z,9.20
2019-02-22T08:05:35.581Z,6.50
2019-02-22T08:08:03.101Z,7.23
2019-02-22T08:10:30.622Z,7.07
2019-02-22T08:12:58.108Z,16.80
2019-02-22T08:15:25.610Z,6.37
2019-02-22T08:17:53.104Z,5.10
2019-02-22T08:20:20.620Z,7.10
2019-02-22T08:22:48.533Z,6.37
2019-02-22T08:25:16.212Z,6.00
2019-02-22T08:27:53.180Z,5.67
2019-02-22T08:30:13.133Z,3.27
2019-02-22T08:32:40.622Z,3.93
2019-02-22T08:35:08.102Z,5.70
2019-02-22T08:37:35.628Z,5.30
2019-02-22T08:40:03.211Z,4.00
2019-02-22T08:42:30.688Z,5.10
2019-02-22T08:44:58.196Z,7.63
2019-02-22T08:47:25.740Z,4.93
2019-02-22T08:49:53.244Z,5.50
2019-02-22T08:52:20.760Z,6.87
2019-02-22T08:54:48.303Z,9.33
2019-02-22T08:57:15.768Z,9.87
2019-02-22T08:59:43.351Z,7.10
2019-02-22T09:02:10.851Z,4.57
2019-02-22T09:04:38.356Z,6.97
2019-02-22T09:07:05.895Z,7.20
2019-02-22T09:09:33.378Z,5.00
2019-02-22T09:12:00.895Z,8.70
2019-02-22T09:14:28.370Z,5.07
2019-02-22T09:16:55.946Z,4.13
2019-02-22T09:19:23.454Z,3.47
2019-02-22T09:21:50.956Z,4.33
2019-02-22T09:24:18.468Z,4.07
2019-02-22T09:26:45.988Z,3.83
2019-02-22T09:29:13.708Z,7.20
2019-02-22T09:31:41.256Z,5.67
2019-02-22T09:34:08.737Z,2.30
2019-02-22T09:36:36.224Z,5.77
2019-02-22T09:39:05.657Z,5.00
2019-02-22T09:41:33.151Z,4.73
2019-02-22T09:44:00.625Z,5.80
2019-02-22T09:46:28.130Z,12.37
2019-02-22T09:48:55.648Z,9.07
2019-02-22T09:51:23.132Z,2.17
2019-02-22T09:53:50.654Z,3.13
2019-02-22T09:56:18.177Z,2.33
2019-02-22T09:58:45.672Z,4.03
2019-02-22T10:01:13.210Z,2.80
2019-02-22T10:03:40.735Z,8.87
2019-02-22T10:06:08.214Z,3.70
2019-02-22T10:08:35.709Z,6.53
2019-02-22T10:11:03.262Z,6.50
2019-02-22T10:13:30.826Z,11.50
2019-02-22T10:15:58.354Z,7.70
2019-02-22T10:18:25.963Z,2.37
2019-02-22T10:20:53.528Z,6.23
2019-02-22T10:23:21.070Z,5.17
2019-02-22T10:25:48.598Z,4.63
2019-02-22T10:28:18.096Z,5.43
2019-02-22T10:30:45.454Z,4.57
2019-02-22T10:33:13.003Z,4.87
2019-02-22T10:35:40.513Z,5.00
2019-02-22T10:38:08.028Z,2.27
2019-02-22T10:40:35.532Z,6.83
2019-02-22T10:43:03.047Z,8.17
2019-02-22T10:45:30.556Z,5.13
2019-02-22T10:47:58.090Z,4.53
2019-02-22T10:50:25.606Z,3.80
2019-02-22T10:53:01.696Z,2.57
2019-02-22T10:55:22.552Z,2.07
2019-02-22T10:57:50.127Z,5.40
2019-02-22T11:00:17.778Z,1.57
2019-02-22T11:02:45.272Z,4.47
2019-02-22T11:05:12.806Z,5.07
2019-02-22T11:07:40.338Z,3.13
2019-02-22T11:10:08.768Z,5.97
2019-02-22T11:12:36.270Z,5.33
2019-02-22T11:15:04.984Z,8.47
2019-02-22T11:17:32.507Z,4.90
2019-02-22T11:19:59.999Z,3.20
2019-02-22T11:22:27.518Z,5.47
2019-02-22T11:24:55.086Z,4.27
2019-02-22T11:27:22.571Z,5.57
2019-02-22T11:29:50.126Z,4.70
2019-02-22T11:32:17.649Z,3.03
2019-02-22T11:34:45.162Z,4.53
2019-02-22T11:37:12.641Z,8.10
2019-02-22T11:39:40.153Z,7.60
2019-02-22T11:42:07.698Z,4.53
2019-02-22T11:44:40.136Z,8.30
2019-02-22T11:47:04.514Z,5.53
2019-02-22T11:49:32.081Z,10.37
2019-02-22T11:51:59.612Z,3.90
2019-02-22T11:54:27.103Z,8.23
2019-02-22T11:56:54.664Z,5.73
2019-02-22T11:59:22.184Z,7.07
2019-02-22T12:01:52.089Z,3.90
2019-02-22T12:04:19.634Z,3.70
2019-02-22T12:06:47.164Z,4.67
2019-02-22T12:09:14.726Z,7.03
2019-02-22T12:11:42.310Z,3.43
2019-02-22T12:14:09.846Z,6.33
2019-02-22T12:16:37.366Z,4.27
2019-02-22T12:19:04.882Z,2.07
2019-02-22T12:21:32.430Z,5.37
2019-02-22T12:23:59.940Z,4.10
2019-02-22T12:26:27.460Z,2.07
2019-02-22T12:28:55.003Z,5.50
2019-02-22T12:31:22.488Z,1.43
2019-02-22T12:33:50.089Z,3.93
2019-02-22T12:36:17.684Z,2.80
2019-02-22T12:38:45.251Z,6.07
2019-02-22T12:41:12.754Z,4.27
2019-02-22T12:43:40.323Z,7.57
2019-02-22T12:46:07.816Z,4.30
2019-02-22T12:48:35.317Z,13.23
2019-02-22T12:51:02.904Z,3.23
2019-02-22T12:53:30.426Z,6.90
2019-02-22T12:55:57.938Z,10.90
2019-02-22T12:58:25.496Z,2.50
2019-02-22T13:00:53.058Z,6.27
2019-02-22T13:03:20.579Z,4.87
2019-02-22T13:05:48.081Z,4.93
2019-02-22T13:08:15.658Z,3.20
2019-02-22T13:10:43.177Z,15.60
2019-02-22T13:13:10.707Z,5.57
2019-02-22T13:15:38.265Z,2.87
2019-02-22T13:18:05.797Z,0.77
2019-02-22T13:20:33.313Z,5.27
2019-02-22T13:23:00.885Z,3.87
2019-02-22T13:25:28.581Z,5.73
2019-02-22T13:27:56.085Z,6.57
2019-02-22T13:30:23.650Z,6.00
2019-02-22T13:32:51.174Z,3.40
2019-02-22T13:35:18.694Z,6.47
2019-02-22T13:37:46.220Z,2.27
2019-02-22T13:40:13.808Z,5.30
2019-02-22T13:42:41.342Z,6.70
2019-02-22T13:45:09.580Z,5.57
2019-02-22T13:47:37.157Z,5.17
2019-02-22T13:50:07.349Z,4.63
2019-02-22T13:52:34.873Z,6.37
2019-02-22T13:55:02.435Z,6.53
2019-02-22T13:57:30.403Z,6.53
2019-02-22T13:59:57.962Z,14.27
2019-02-22T14:02:25.535Z,4.50
2019-02-22T14:04:53.019Z,4.80
2019-02-22T14:07:20.510Z,4.37
2019-02-22T14:09:48.062Z,5.47
2019-02-22T14:12:15.588Z,2.77
2019-02-22T14:14:43.128Z,3.83
2019-02-22T14:17:10.646Z,7.43
2019-02-22T14:19:38.182Z,8.30
2019-02-22T14:22:05.765Z,5.27
2019-02-22T14:24:33.249Z,6.37
2019-02-22T14:27:00.774Z,4.77
2019-02-22T14:29:28.316Z,6.07
2019-02-22T14:31:55.813Z,8.67
2019-02-22T14:34:23.309Z,3.77
2019-02-22T14:36:50.846Z,5.43
2019-02-22T14:39:18.693Z,6.27
2019-02-22T14:41:46.222Z,6.60
2019-02-22T14:44:13.825Z,4.00
2019-02-22T14:46:41.367Z,5.83
2019-02-22T14:49:08.863Z,6.27
2019-02-22T14:51:36.465Z,5.00
2019-02-22T14:54:04.023Z,5.77
2019-02-22T14:56:31.577Z,6.33
2019-02-22T14:58:59.234Z,5.50
2019-02-22T15:01:26.805Z,4.37
2019-02-22T15:03:54.470Z,5.73
2019-02-22T15:06:22.146Z,6.27
2019-02-22T15:08:49.673Z,2.37
2019-02-22T15:11:17.648Z,5.37
2019-02-22T15:13:45.238Z,5.90
2019-02-22T15:16:44.405Z,6.50
2019-02-22T15:19:11.955Z,3.13
2019-02-22T15:21:39.549Z,16.10
2019-02-22T15:24:07.179Z,12.77
2019-02-22T15:26:34.718Z,4.20
2019-02-22T15:29:02.370Z,8.50
2019-02-22T15:31:36.167Z,6.17
2019-02-22T15:33:59.370Z,5.60
2019-02-22T15:36:26.906Z,6.43
2019-02-22T15:38:54.509Z,4.40
2019-02-22T15:41:23.212Z,10.00
2019-02-22T15:43:51.095Z,4.00
2019-02-22T15:46:18.848Z,5.17
2019-02-22T15:48:46.477Z,9.50
2019-02-22T15:51:14.285Z,10.53
2019-02-22T15:53:47.087Z,8.37
2019-02-22T15:56:18.436Z,13.97
2019-02-22T15:58:47.838Z,13.73
2019-02-22T16:01:15.469Z,11.47
2019-02-22T16:03:52.928Z,7.43
2019-02-22T16:06:22.480Z,6.23
2019-02-22T16:08:51.334Z,14.27
2019-02-22T16:11:19.191Z,8.33
2019-02-22T16:13:47.040Z,9.30
2019-02-22T16:16:22.942Z,16.63
2019-02-22T16:18:44.425Z,19.53
2019-02-22T16:21:12.078Z,16.93
2019-02-22T16:23:41.924Z,15.30
2019-02-22T16:26:09.843Z,8.30
2019-02-22T16:28:37.463Z,13.33
2019-02-22T16:31:05.493Z,10.67
2019-02-22T16:33:33.059Z,12.17
2019-02-22T16:36:00.677Z,7.43
2019-02-22T16:38:29.852Z,13.37
2019-02-22T16:40:58.662Z,9.97
2019-02-22T16:43:26.597Z,9.03
2019-02-22T16:45:57.738Z,12.00
2019-02-22T16:48:28.372Z,20.83
2019-02-22T16:50:56.105Z,31.43
2019-02-22T16:54:11.147Z,27.37
2019-02-22T16:56:30.726Z,24.67
2019-02-22T16:59:10.061Z,20.37
2019-02-22T17:01:43.545Z,26.97
2019-02-22T17:04:12.552Z,103.07
2019-02-22T17:06:42.968Z,53.00
2019-02-22T17:09:11.980Z,57.73
2019-02-22T17:11:39.825Z,35.27
2019-02-22T17:14:09.447Z,35.97
2019-02-22T17:16:45.518Z,100.97
2019-02-22T17:19:14.246Z,95.53
2019-02-22T17:21:44.775Z,48.67
2019-02-22T17:24:16.967Z,44.63
2019-02-22T17:26:57.733Z,43.37
2019-02-22T17:29:20.936Z,53.47
2019-02-22T17:31:53.559Z,22.67
2019-02-22T17:34:21.067Z,19.40
2019-02-22T17:36:48.741Z,23.47
2019-02-22T17:39:18.599Z,36.00
2019-02-22T17:42:08.131Z,16.47
2019-02-22T17:44:39.557Z,14.60
2019-02-22T17:47:08.597Z,20.93
2019-02-22T17:49:36.349Z,20.77
2019-02-22T17:52:04.011Z,18.87
2019-02-22T17:54:33.612Z,27.40
2019-02-22T17:57:04.293Z,28.80
2019-02-22T17:59:31.898Z,26.27
2019-02-22T18:02:00.765Z,25.50
2019-02-22T18:04:28.367Z,20.10
2019-02-22T18:06:56.117Z,41.33
2019-02-22T18:09:23.671Z,23.43
2019-02-22T18:11:52.253Z,21.50
2019-02-22T18:14:19.901Z,19.40
2019-02-22T18:16:47.492Z,18.83
2019-02-22T18:19:15.150Z,22.23
2019-02-22T18:21:42.801Z,17.97
2019-02-22T18:24:10.501Z,22.53
2019-02-22T18:26:38.069Z,19.47
2019-02-22T18:29:05.651Z,18.73
2019-02-22T18:31:34.780Z,16.40
2019-02-22T18:34:07.239Z,21.70
2019-02-22T18:36:34.874Z,21.47
2019-02-22T18:39:04.225Z,25.27
2019-02-22T18:41:31.953Z,29.03
2019-02-22T18:43:59.746Z,22.20
2019-02-22T18:46:27.433Z,18.73
2019-02-22T18:48:55.099Z,16.93
2019-02-22T18:51:22.645Z,17.93
2019-02-22T18:53:50.230Z,21.13
2019-02-22T18:56:19.756Z,23.13
2019-02-22T18:58:48.041Z,42.20
2019-02-22T19:01:15.713Z,63.40
2019-02-22T19:03:43.273Z,70.30
2019-02-22T19:06:10.931Z,45.53
2019-02-22T19:08:38.489Z,21.07
2019-02-22T19:11:06.032Z,14.80
2019-02-22T19:13:33.614Z,16.20
2019-02-22T19:16:01.149Z,28.00
2019-02-22T19:18:28.693Z,22.53
2019-02-22T19:20:56.273Z,24.50
2019-02-22T19:23:23.796Z,31.03
2019-02-22T19:25:51.456Z,27.17
2019-02-22T19:28:19.030Z,26.43
2019-02-22T19:30:46.549Z,23.33
2019-02-22T19:33:14.143Z,26.77
2019-02-22T19:35:41.675Z,25.73
2019-02-22T19:38:09.245Z,24.63
2019-02-22T19:40:36.833Z,23.27
2019-02-22T19:43:04.459Z,22.07
2019-02-22T19:45:31.993Z,26.47
2019-02-22T19:47:59.517Z,19.40
2019-02-22T19:50:27.036Z,18.23
2019-02-22T19:52:54.682Z,19.70
2019-02-22T19:55:22.679Z,20.03
2019-02-22T19:57:50.651Z,29.23
2019-02-22T20:00:18.183Z,23.90
2019-02-22T20:02:45.711Z,20.40
2019-02-22T20:05:13.397Z,32.17
2019-02-22T20:07:40.919Z,15.73
2019-02-22T20:10:17.397Z,17.30
2019-02-22T20:12:39.515Z,20.47
2019-02-22T20:15:08.824Z,22.67
2019-02-22T20:17:36.340Z,22.97
2019-02-22T20:20:04.537Z,23.50
2019-02-22T20:22:32.064Z,25.13
2019-02-22T20:24:59.669Z,19.33
2019-02-22T20:27:27.238Z,21.90
2019-02-22T20:29:54.853Z,21.17
2019-02-22T20:32:22.427Z,21.83
2019-02-22T20:34:49.968Z,17.30
2019-02-22T20:37:17.531Z,18.33
2019-02-22T20:39:45.119Z,18.53
2019-02-22T20:42:12.678Z,14.67
2019-02-22T20:44:40.256Z,24.97
2019-02-22T20:47:07.813Z,14.00
2019-02-22T20:49:35.460Z,19.00
2019-02-22T20:52:03.040Z,22.03
2019-02-22T20:54:30.692Z,17.00
2019-02-22T20:56:58.292Z,26.37
2019-02-22T20:59:25.869Z,25.03
2019-02-22T21:01:53.422Z,16.93
2019-02-22T21:04:20.975Z,23.53
2019-02-22T21:06:48.548Z,16.93
2019-02-22T21:09:16.089Z,18.93
2019-02-22T21:11:43.668Z,18.03
2019-02-22T21:14:11.284Z,19.23
2019-02-22T21:16:38.808Z,25.57
2019-02-22T21:19:06.338Z,35.80
2019-02-22T21:21:33.887Z,39.10
2019-02-22T21:24:01.449Z,32.70
2019-02-22T21:26:28.968Z,30.17
2019-02-22T21:28:56.500Z,36.10
2019-02-22T21:31:24.047Z,29.93
2019-02-22T21:33:51.608Z,44.23
2019-02-22T21:36:19.282Z,33.20
2019-02-22T21:38:47.082Z,42.00
2019-02-22T21:41:16.392Z,43.13
2019-02-22T21:43:44.048Z,37.37
2019-02-22T21:46:11.605Z,31.73
2019-02-22T21:48:39.306Z,35.23
2019-02-22T21:51:23.302Z,36.30
2019-02-22T21:53:48.250Z,29.97
2019-02-22T21:56:15.768Z,32.80
2019-02-22T21:58:43.392Z,29.57
2019-02-22T22:01:10.949Z,28.90
2019-02-22T22:03:38.532Z,26.90
2019-02-22T22:06:06.368Z,38.03
2019-02-22T22:08:36.441Z,35.53
2019-02-22T22:11:07.021Z,42.80
2019-02-22T22:13:34.543Z,31.23
2019-02-22T22:16:02.100Z,28.27
2019-02-22T22:18:38.409Z,32.37
2019-02-22T22:20:58.949Z,33.27
2019-02-22T22:23:26.474Z,28.03
2019-02-22T22:25:54.030Z,21.73
2019-02-22T22:28:21.625Z,33.57
2019-02-22T22:30:49.251Z,36.73
2019-02-22T22:33:16.745Z,32.97
2019-02-22T22:35:44.263Z,27.47
2019-02-22T22:38:11.820Z,28.73
2019-02-22T22:40:39.339Z,30.47
2019-02-22T22:43:06.879Z,42.13
2019-02-22T22:45:34.569Z,32.47
2019-02-22T22:48:02.343Z,29.83
2019-02-22T22:50:29.868Z,49.77
2019-02-22T22:52:57.408Z,50.57
2019-02-22T22:55:24.944Z,49.77
2019-02-22T22:57:52.484Z,30.33
2019-02-22T23:00:54.975Z,55.77
2019-02-22T23:03:22.734Z,42.30
2019-02-22T23:05:50.440Z,45.67
2019-02-22T23:08:18.008Z,45.63
2019-02-22T23:10:45.578Z,44.30
2019-02-22T23:13:13.128Z,39.53
2019-02-22T23:15:40.669Z,29.93
2019-02-22T23:18:08.230Z,37.50
2019-02-22T23:20:36.710Z,41.40
2019-02-22T23:23:04.276Z,42.60
2019-02-22T23:25:32.100Z,42.50
2019-02-22T23:27:59.644Z,44.97
2019-02-22T23:30:27.270Z,30.40
2019-02-22T23:32:54.852Z,34.93
2019-02-22T23:35:23.594Z,37.77
2019-02-22T23:37:51.106Z,40.80
2019-02-22T23:40:18.658Z,50.30
2019-02-22T23:42:46.207Z,37.23
2019-02-22T23:45:13.752Z,46.37
2019-02-22T23:47:41.311Z,34.30
2019-02-22T23:50:08.836Z,30.30
2019-02-22T23:52:36.340Z,28.80
2019-02-22T23:55:03.868Z,26.73
2019-02-22T23:57:31.488Z,32.97
2019-02-22T23:59:59.012Z,36.73
